sensor_id;sensor_type;location;lat;lon;timestamp;P1;durP1;ratioP1;P2;durP2;ratioP2
6251;SDS011;3159;52.414;9.784;2023-01-04T00:01:29;5.37;;;1.97;;
6251;SDS011;3159;52.414;9.784;2023-01-04T00:03:57;3.67;;;2.00;;
6251;SDS011;3159;52.414;9.784;2023-01-04T00:06:24;5.93;;;1.70;;
6251;SDS011;3159;52.414;9.784;2023-01-04T00:08:50;3.70;;;1.67;;
6251;SDS011;3159;52.414;9.784;2023-01-04T00:11:19;3.03;;;1.83;;
6251;SDS011;3159;52.414;9.784;2023-01-04T00:13:47;5.30;;;2.00;;
6251;SDS011;3159;52.414;9.784;2023-01-04T00:16:16;4.87;;;2.07;;
6251;SDS011;3159;52.414;9.784;2023-01-04T00:18:44;3.33;;;2.20;;
6251;SDS011;3159;52.414;9.784;2023-01-04T00:21:13;6.83;;;2.13;;
6251;SDS011;3159;52.414;9.784;2023-01-04T00:23:42;3.13;;;1.70;;
6251;SDS011;3159;52.414;9.784;2023-01-04T00:26:11;3.03;;;1.80;;
6251;SDS011;3159;52.414;9.784;2023-01-04T00:28:39;5.10;;;2.33;;
6251;SDS011;3159;52.414;9.784;2023-01-04T00:31:07;4.93;;;1.60;;
6251;SDS011;3159;52.414;9.784;2023-01-04T00:33:35;4.77;;;1.90;;
6251;SDS011;3159;52.414;9.784;2023-01-04T00:36:03;4.50;;;2.00;;
6251;SDS011;3159;52.414;9.784;2023-01-04T00:38:32;3.97;;;1.70;;
6251;SDS011;3159;52.414;9.784;2023-01-04T00:41:00;3.60;;;1.60;;
6251;SDS011;3159;52.414;9.784;2023-01-04T00:43:27;5.20;;;1.70;;
6251;SDS011;3159;52.414;9.784;2023-01-04T00:45:54;4.97;;;1.93;;
6251;SDS011;3159;52.414;9.784;2023-01-04T00:48:21;3.83;;;1.63;;
6251;SDS011;3159;52.414;9.784;2023-01-04T00:50:48;5.17;;;1.87;;
6251;SDS011;3159;52.414;9.784;2023-01-04T00:53:15;5.37;;;1.70;;
6251;SDS011;3159;52.414;9.784;2023-01-04T00:55:44;3.73;;;1.60;;
6251;SDS011;3159;52.414;9.784;2023-01-04T00:58:11;5.17;;;1.70;;
6251;SDS011;3159;52.414;9.784;2023-01-04T01:00:38;2.50;;;1.73;;
6251;SDS011;3159;52.414;9.784;2023-01-04T01:03:05;5.97;;;1.73;;
6251;SDS011;3159;52.414;9.784;2023-01-04T01:05:32;3.70;;;1.80;;
6251;SDS011;3159;52.414;9.784;2023-01-04T01:08:00;5.43;;;2.00;;
6251;SDS011;3159;52.414;9.784;2023-01-04T01:10:48;5.43;;;1.83;;
6251;SDS011;3159;52.414;9.784;2023-01-04T01:13:15;3.83;;;1.60;;
6251;SDS011;3159;52.414;9.784;2023-01-04T01:15:42;3.93;;;1.83;;
6251;SDS011;3159;52.414;9.784;2023-01-04T01:18:09;3.97;;;2.00;;
6251;SDS011;3159;52.414;9.784;2023-01-04T01:20:39;4.13;;;1.60;;
6251;SDS011;3159;52.414;9.784;2023-01-04T01:23:08;4.77;;;1.73;;
6251;SDS011;3159;52.414;9.784;2023-01-04T01:25:35;4.40;;;1.93;;
6251;SDS011;3159;52.414;9.784;2023-01-04T01:28:04;3.50;;;1.60;;
6251;SDS011;3159;52.414;9.784;2023-01-04T01:30:30;4.13;;;1.77;;
6251;SDS011;3159;52.414;9.784;2023-01-04T01:32:57;2.97;;;1.70;;
6251;SDS011;3159;52.414;9.784;2023-01-04T01:35:24;3.83;;;2.20;;
6251;SDS011;3159;52.414;9.784;2023-01-04T01:37:51;3.57;;;1.93;;
6251;SDS011;3159;52.414;9.784;2023-01-04T01:40:18;7.10;;;1.67;;
6251;SDS011;3159;52.414;9.784;2023-01-04T01:42:44;4.53;;;1.70;;
6251;SDS011;3159;52.414;9.784;2023-01-04T01:45:23;3.97;;;1.93;;
6251;SDS011;3159;52.414;9.784;2023-01-04T01:47:57;3.87;;;2.17;;
6251;SDS011;3159;52.414;9.784;2023-01-04T01:50:30;4.70;;;1.80;;
6251;SDS011;3159;52.414;9.784;2023-01-04T01:53:01;7.57;;;2.00;;
6251;SDS011;3159;52.414;9.784;2023-01-04T01:55:29;4.77;;;2.27;;
6251;SDS011;3159;52.414;9.784;2023-01-04T01:57:58;5.10;;;1.90;;
6251;SDS011;3159;52.414;9.784;2023-01-04T02:00:27;4.30;;;1.90;;
6251;SDS011;3159;52.414;9.784;2023-01-04T02:03:01;3.93;;;2.00;;
6251;SDS011;3159;52.414;9.784;2023-01-04T02:05:35;3.03;;;1.93;;
6251;SDS011;3159;52.414;9.784;2023-01-04T02:08:03;5.03;;;1.93;;
6251;SDS011;3159;52.414;9.784;2023-01-04T02:10:31;4.50;;;2.10;;
6251;SDS011;3159;52.414;9.784;2023-01-04T02:12:58;4.77;;;2.10;;
6251;SDS011;3159;52.414;9.784;2023-01-04T02:15:34;4.20;;;1.70;;
6251;SDS011;3159;52.414;9.784;2023-01-04T02:18:09;4.23;;;1.63;;
6251;SDS011;3159;52.414;9.784;2023-01-04T02:20:42;5.80;;;1.90;;
6251;SDS011;3159;52.414;9.784;2023-01-04T02:29:41;5.33;;;1.53;;
6251;SDS011;3159;52.414;9.784;2023-01-04T02:32:47;4.73;;;1.90;;
6251;SDS011;3159;52.414;9.784;2023-01-04T02:35:25;2.87;;;1.37;;
6251;SDS011;3159;52.414;9.784;2023-01-04T02:37:57;2.00;;;1.50;;
6251;SDS011;3159;52.414;9.784;2023-01-04T02:40:32;3.43;;;1.60;;
6251;SDS011;3159;52.414;9.784;2023-01-04T02:43:11;4.67;;;1.70;;
6251;SDS011;3159;52.414;9.784;2023-01-04T02:46:03;3.40;;;1.90;;
6251;SDS011;3159;52.414;9.784;2023-01-04T02:48:38;4.13;;;1.90;;
6251;SDS011;3159;52.414;9.784;2023-01-04T02:51:24;2.60;;;1.47;;
6251;SDS011;3159;52.414;9.784;2023-01-04T02:53:53;3.70;;;1.43;;
6251;SDS011;3159;52.414;9.784;2023-01-04T02:56:24;2.30;;;1.50;;
6251;SDS011;3159;52.414;9.784;2023-01-04T02:59:03;3.63;;;1.73;;
6251;SDS011;3159;52.414;9.784;2023-01-04T03:01:45;3.17;;;1.50;;
6251;SDS011;3159;52.414;9.784;2023-01-04T03:04:40;3.80;;;2.00;;
6251;SDS011;3159;52.414;9.784;2023-01-04T03:07:33;2.47;;;1.60;;
6251;SDS011;3159;52.414;9.784;2023-01-04T03:10:06;3.43;;;1.50;;
6251;SDS011;3159;52.414;9.784;2023-01-04T03:12:40;4.53;;;1.80;;
6251;SDS011;3159;52.414;9.784;2023-01-04T03:15:12;2.37;;;1.40;;
6251;SDS011;3159;52.414;9.784;2023-01-04T03:17:44;3.13;;;1.80;;
6251;SDS011;3159;52.414;9.784;2023-01-04T03:20:16;4.00;;;1.90;;
6251;SDS011;3159;52.414;9.784;2023-01-04T03:22:46;4.50;;;1.63;;
6251;SDS011;3159;52.414;9.784;2023-01-04T03:25:37;4.17;;;1.90;;
6251;SDS011;3159;52.414;9.784;2023-01-04T03:28:24;3.93;;;1.60;;
6251;SDS011;3159;52.414;9.784;2023-01-04T03:31:13;4.63;;;1.77;;
6251;SDS011;3159;52.414;9.784;2023-01-04T03:34:01;5.73;;;2.00;;
6251;SDS011;3159;52.414;9.784;2023-01-04T03:36:51;3.07;;;1.63;;
6251;SDS011;3159;52.414;9.784;2023-01-04T03:39:27;3.57;;;1.77;;
6251;SDS011;3159;52.414;9.784;2023-01-04T03:42:19;2.60;;;1.60;;
6251;SDS011;3159;52.414;9.784;2023-01-04T03:45:10;4.40;;;2.10;;
6251;SDS011;3159;52.414;9.784;2023-01-04T03:47:59;4.23;;;2.17;;
6251;SDS011;3159;52.414;9.784;2023-01-04T03:50:50;3.40;;;1.83;;
6251;SDS011;3159;52.414;9.784;2023-01-04T03:53:23;4.73;;;1.90;;
6251;SDS011;3159;52.414;9.784;2023-01-04T03:55:52;4.43;;;1.80;;
6251;SDS011;3159;52.414;9.784;2023-01-04T03:58:20;4.93;;;2.00;;
6251;SDS011;3159;52.414;9.784;2023-01-04T04:00:47;4.67;;;1.87;;
6251;SDS011;3159;52.414;9.784;2023-01-04T04:03:14;5.20;;;1.63;;
6251;SDS011;3159;52.414;9.784;2023-01-04T04:05:42;4.77;;;2.20;;
6251;SDS011;3159;52.414;9.784;2023-01-04T04:08:29;3.97;;;2.20;;
6251;SDS011;3159;52.414;9.784;2023-01-04T04:10:57;3.60;;;1.90;;
6251;SDS011;3159;52.414;9.784;2023-01-04T04:13:46;2.67;;;1.93;;
6251;SDS011;3159;52.414;9.784;2023-01-04T04:16:13;4.17;;;2.27;;
6251;SDS011;3159;52.414;9.784;2023-01-04T04:18:40;7.20;;;1.90;;
6251;SDS011;3159;52.414;9.784;2023-01-04T04:21:07;6.70;;;2.33;;
6251;SDS011;3159;52.414;9.784;2023-01-04T04:23:35;5.07;;;2.33;;
6251;SDS011;3159;52.414;9.784;2023-01-04T04:26:02;7.23;;;2.17;;
6251;SDS011;3159;52.414;9.784;2023-01-04T04:28:29;7.30;;;2.40;;
6251;SDS011;3159;52.414;9.784;2023-01-04T04:30:55;6.00;;;2.13;;
6251;SDS011;3159;52.414;9.784;2023-01-04T04:33:22;4.30;;;2.00;;
6251;SDS011;3159;52.414;9.784;2023-01-04T04:35:49;5.23;;;2.00;;
6251;SDS011;3159;52.414;9.784;2023-01-04T04:38:17;3.80;;;2.17;;
6251;SDS011;3159;52.414;9.784;2023-01-04T04:40:45;4.17;;;2.10;;
6251;SDS011;3159;52.414;9.784;2023-01-04T04:43:31;4.83;;;2.00;;
6251;SDS011;3159;52.414;9.784;2023-01-04T04:45:58;6.87;;;2.10;;
6251;SDS011;3159;52.414;9.784;2023-01-04T04:48:24;5.10;;;2.10;;
6251;SDS011;3159;52.414;9.784;2023-01-04T04:50:51;5.63;;;2.60;;
6251;SDS011;3159;52.414;9.784;2023-01-04T04:53:18;3.43;;;2.10;;
6251;SDS011;3159;52.414;9.784;2023-01-04T04:55:49;3.63;;;2.23;;
6251;SDS011;3159;52.414;9.784;2023-01-04T04:58:15;4.30;;;2.40;;
6251;SDS011;3159;52.414;9.784;2023-01-04T05:00:42;5.43;;;2.23;;
6251;SDS011;3159;52.414;9.784;2023-01-04T05:03:09;2.43;;;1.90;;
6251;SDS011;3159;52.414;9.784;2023-01-04T05:05:36;5.93;;;1.83;;
6251;SDS011;3159;52.414;9.784;2023-01-04T05:08:03;4.00;;;2.40;;
6251;SDS011;3159;52.414;9.784;2023-01-04T05:10:30;8.60;;;1.90;;
6251;SDS011;3159;52.414;9.784;2023-01-04T05:12:58;4.73;;;2.20;;
6251;SDS011;3159;52.414;9.784;2023-01-04T05:15:24;5.03;;;1.93;;
6251;SDS011;3159;52.414;9.784;2023-01-04T05:17:52;5.87;;;1.93;;
6251;SDS011;3159;52.414;9.784;2023-01-04T05:20:19;3.33;;;2.07;;
6251;SDS011;3159;52.414;9.784;2023-01-04T05:22:45;1.97;;;1.77;;
6251;SDS011;3159;52.414;9.784;2023-01-04T05:25:14;7.00;;;2.40;;
6251;SDS011;3159;52.414;9.784;2023-01-04T05:27:41;3.93;;;2.13;;
6251;SDS011;3159;52.414;9.784;2023-01-04T05:30:11;3.70;;;1.87;;
6251;SDS011;3159;52.414;9.784;2023-01-04T05:32:56;4.70;;;1.73;;
6251;SDS011;3159;52.414;9.784;2023-01-04T05:35:24;4.03;;;2.40;;
6251;SDS011;3159;52.414;9.784;2023-01-04T05:37:51;2.50;;;2.00;;
6251;SDS011;3159;52.414;9.784;2023-01-04T05:40:18;3.97;;;1.93;;
6251;SDS011;3159;52.414;9.784;2023-01-04T05:42:45;4.63;;;2.60;;
6251;SDS011;3159;52.414;9.784;2023-01-04T05:45:14;3.87;;;2.30;;
6251;SDS011;3159;52.414;9.784;2023-01-04T05:47:41;5.37;;;2.30;;
6251;SDS011;3159;52.414;9.784;2023-01-04T05:50:09;5.07;;;1.80;;
6251;SDS011;3159;52.414;9.784;2023-01-04T05:52:36;3.43;;;1.80;;
6251;SDS011;3159;52.414;9.784;2023-01-04T05:55:03;1.60;;;1.50;;
6251;SDS011;3159;52.414;9.784;2023-01-04T05:57:30;4.73;;;1.90;;
6251;SDS011;3159;52.414;9.784;2023-01-04T05:59:57;2.33;;;1.63;;
6251;SDS011;3159;52.414;9.784;2023-01-04T06:02:26;3.73;;;1.60;;
6251;SDS011;3159;52.414;9.784;2023-01-04T06:04:54;2.67;;;1.77;;
6251;SDS011;3159;52.414;9.784;2023-01-04T06:07:21;2.47;;;1.73;;
6251;SDS011;3159;52.414;9.784;2023-01-04T06:09:48;4.37;;;2.10;;
6251;SDS011;3159;52.414;9.784;2023-01-04T06:12:15;2.80;;;1.70;;
6251;SDS011;3159;52.414;9.784;2023-01-04T06:14:42;2.50;;;1.40;;
6251;SDS011;3159;52.414;9.784;2023-01-04T06:17:09;4.17;;;1.80;;
6251;SDS011;3159;52.414;9.784;2023-01-04T06:19:37;2.90;;;1.60;;
6251;SDS011;3159;52.414;9.784;2023-01-04T06:22:04;3.30;;;1.50;;
6251;SDS011;3159;52.414;9.784;2023-01-04T06:24:31;1.87;;;1.70;;
6251;SDS011;3159;52.414;9.784;2023-01-04T06:26:59;3.47;;;1.60;;
6251;SDS011;3159;52.414;9.784;2023-01-04T06:29:25;3.20;;;2.23;;
6251;SDS011;3159;52.414;9.784;2023-01-04T06:31:53;3.17;;;1.70;;
6251;SDS011;3159;52.414;9.784;2023-01-04T06:34:20;1.77;;;1.40;;
6251;SDS011;3159;52.414;9.784;2023-01-04T06:36:48;2.17;;;1.40;;
6251;SDS011;3159;52.414;9.784;2023-01-04T06:39:14;2.37;;;1.70;;
6251;SDS011;3159;52.414;9.784;2023-01-04T06:41:41;1.57;;;1.23;;
6251;SDS011;3159;52.414;9.784;2023-01-04T06:44:08;2.50;;;1.33;;
6251;SDS011;3159;52.414;9.784;2023-01-04T06:46:35;3.10;;;1.50;;
6251;SDS011;3159;52.414;9.784;2023-01-04T06:49:02;2.77;;;1.47;;
6251;SDS011;3159;52.414;9.784;2023-01-04T06:51:28;2.07;;;1.60;;
6251;SDS011;3159;52.414;9.784;2023-01-04T06:53:57;2.13;;;1.53;;
6251;SDS011;3159;52.414;9.784;2023-01-04T06:56:23;2.50;;;1.70;;
6251;SDS011;3159;52.414;9.784;2023-01-04T06:58:50;2.30;;;1.50;;
6251;SDS011;3159;52.414;9.784;2023-01-04T07:01:17;3.73;;;1.60;;
6251;SDS011;3159;52.414;9.784;2023-01-04T07:03:44;2.20;;;1.67;;
6251;SDS011;3159;52.414;9.784;2023-01-04T07:06:10;2.53;;;1.77;;
6251;SDS011;3159;52.414;9.784;2023-01-04T07:08:37;2.93;;;1.87;;
6251;SDS011;3159;52.414;9.784;2023-01-04T07:11:05;3.13;;;1.53;;
6251;SDS011;3159;52.414;9.784;2023-01-04T07:13:32;3.77;;;1.70;;
6251;SDS011;3159;52.414;9.784;2023-01-04T07:15:59;3.33;;;1.43;;
6251;SDS011;3159;52.414;9.784;2023-01-04T07:18:26;3.60;;;1.30;;
6251;SDS011;3159;52.414;9.784;2023-01-04T07:20:53;1.92;;;1.73;;
6251;SDS011;3159;52.414;9.784;2023-01-04T07:23:19;2.53;;;1.80;;
6251;SDS011;3159;52.414;9.784;2023-01-04T07:25:46;3.37;;;1.60;;
6251;SDS011;3159;52.414;9.784;2023-01-04T07:28:14;1.43;;;1.30;;
6251;SDS011;3159;52.414;9.784;2023-01-04T07:31:05;3.43;;;1.40;;
6251;SDS011;3159;52.414;9.784;2023-01-04T07:33:32;2.67;;;1.50;;
6251;SDS011;3159;52.414;9.784;2023-01-04T07:36:03;1.77;;;1.60;;
6251;SDS011;3159;52.414;9.784;2023-01-04T07:38:31;2.13;;;1.33;;
6251;SDS011;3159;52.414;9.784;2023-01-04T07:40:59;3.67;;;1.50;;
6251;SDS011;3159;52.414;9.784;2023-01-04T07:43:27;1.30;;;1.20;;
6251;SDS011;3159;52.414;9.784;2023-01-04T07:45:54;2.07;;;1.30;;
6251;SDS011;3159;52.414;9.784;2023-01-04T07:48:21;2.17;;;1.70;;
6251;SDS011;3159;52.414;9.784;2023-01-04T07:50:47;1.57;;;1.13;;
6251;SDS011;3159;52.414;9.784;2023-01-04T07:53:15;1.20;;;1.10;;
6251;SDS011;3159;52.414;9.784;2023-01-04T07:55:42;2.53;;;1.70;;
6251;SDS011;3159;52.414;9.784;2023-01-04T07:58:09;1.50;;;1.17;;
6251;SDS011;3159;52.414;9.784;2023-01-04T08:00:37;2.60;;;1.57;;
6251;SDS011;3159;52.414;9.784;2023-01-04T08:03:04;1.70;;;1.53;;
6251;SDS011;3159;52.414;9.784;2023-01-04T08:05:31;8.03;;;7.23;;
6251;SDS011;3159;52.414;9.784;2023-01-04T08:07:58;1.80;;;1.00;;
6251;SDS011;3159;52.414;9.784;2023-01-04T08:10:25;2.13;;;1.20;;
6251;SDS011;3159;52.414;9.784;2023-01-04T08:12:52;2.87;;;1.37;;
6251;SDS011;3159;52.414;9.784;2023-01-04T08:15:19;1.57;;;0.93;;
6251;SDS011;3159;52.414;9.784;2023-01-04T08:17:47;1.60;;;1.20;;
6251;SDS011;3159;52.414;9.784;2023-01-04T08:20:14;2.80;;;1.20;;
6251;SDS011;3159;52.414;9.784;2023-01-04T08:22:40;2.20;;;1.20;;
6251;SDS011;3159;52.414;9.784;2023-01-04T08:25:07;1.47;;;1.20;;
6251;SDS011;3159;52.414;9.784;2023-01-04T08:27:35;2.83;;;1.17;;
6251;SDS011;3159;52.414;9.784;2023-01-04T08:30:02;2.03;;;1.50;;
6251;SDS011;3159;52.414;9.784;2023-01-04T08:32:29;3.07;;;1.23;;
6251;SDS011;3159;52.414;9.784;2023-01-04T08:34:57;2.23;;;1.43;;
6251;SDS011;3159;52.414;9.784;2023-01-04T08:37:24;3.03;;;1.57;;
6251;SDS011;3159;52.414;9.784;2023-01-04T08:39:51;1.30;;;1.20;;
6251;SDS011;3159;52.414;9.784;2023-01-04T08:42:18;1.33;;;1.23;;
6251;SDS011;3159;52.414;9.784;2023-01-04T08:44:44;1.40;;;1.30;;
6251;SDS011;3159;52.414;9.784;2023-01-04T08:47:11;1.13;;;1.00;;
6251;SDS011;3159;52.414;9.784;2023-01-04T08:49:38;1.17;;;1.07;;
6251;SDS011;3159;52.414;9.784;2023-01-04T08:52:06;2.90;;;1.37;;
6251;SDS011;3159;52.414;9.784;2023-01-04T08:54:34;1.73;;;1.03;;
6251;SDS011;3159;52.414;9.784;2023-01-04T08:57:00;1.60;;;1.13;;
6251;SDS011;3159;52.414;9.784;2023-01-04T08:59:27;1.40;;;1.30;;
6251;SDS011;3159;52.414;9.784;2023-01-04T09:01:54;2.13;;;1.30;;
6251;SDS011;3159;52.414;9.784;2023-01-04T09:04:21;1.40;;;1.10;;
6251;SDS011;3159;52.414;9.784;2023-01-04T09:06:47;2.40;;;1.30;;
6251;SDS011;3159;52.414;9.784;2023-01-04T09:09:16;1.60;;;1.17;;
6251;SDS011;3159;52.414;9.784;2023-01-04T09:11:42;1.97;;;1.00;;
6251;SDS011;3159;52.414;9.784;2023-01-04T09:14:09;1.30;;;1.10;;
6251;SDS011;3159;52.414;9.784;2023-01-04T09:16:38;2.63;;;1.30;;
6251;SDS011;3159;52.414;9.784;2023-01-04T09:19:05;2.20;;;1.50;;
6251;SDS011;3159;52.414;9.784;2023-01-04T09:21:32;2.93;;;1.30;;
6251;SDS011;3159;52.414;9.784;2023-01-04T09:23:59;2.53;;;1.30;;
6251;SDS011;3159;52.414;9.784;2023-01-04T09:26:27;2.63;;;1.23;;
6251;SDS011;3159;52.414;9.784;2023-01-04T09:28:54;3.23;;;2.00;;
6251;SDS011;3159;52.414;9.784;2023-01-04T09:31:23;3.23;;;1.53;;
6251;SDS011;3159;52.414;9.784;2023-01-04T09:33:52;5.97;;;2.30;;
6251;SDS011;3159;52.414;9.784;2023-01-04T09:36:19;2.37;;;1.17;;
6251;SDS011;3159;52.414;9.784;2023-01-04T09:38:47;4.10;;;1.80;;
6251;SDS011;3159;52.414;9.784;2023-01-04T09:41:17;1.90;;;1.10;;
6251;SDS011;3159;52.414;9.784;2023-01-04T09:43:51;2.33;;;1.13;;
6251;SDS011;3159;52.414;9.784;2023-01-04T09:46:22;1.90;;;1.20;;
6251;SDS011;3159;52.414;9.784;2023-01-04T09:48:55;3.43;;;1.57;;
6251;SDS011;3159;52.414;9.784;2023-01-04T09:51:33;2.53;;;1.50;;
6251;SDS011;3159;52.414;9.784;2023-01-04T09:54:03;2.50;;;1.00;;
6251;SDS011;3159;52.414;9.784;2023-01-04T09:56:36;1.20;;;0.97;;
6251;SDS011;3159;52.414;9.784;2023-01-04T09:59:06;5.73;;;2.30;;
6251;SDS011;3159;52.414;9.784;2023-01-04T10:01:40;1.30;;;0.80;;
6251;SDS011;3159;52.414;9.784;2023-01-04T10:04:12;1.20;;;0.80;;
6251;SDS011;3159;52.414;9.784;2023-01-04T10:06:44;0.77;;;0.77;;
6251;SDS011;3159;52.414;9.784;2023-01-04T10:09:12;1.43;;;0.80;;
6251;SDS011;3159;52.414;9.784;2023-01-04T10:11:44;0.70;;;0.70;;
6251;SDS011;3159;52.414;9.784;2023-01-04T10:14:34;0.63;;;0.63;;
6251;SDS011;3159;52.414;9.784;2023-01-04T10:17:13;1.20;;;0.80;;
6251;SDS011;3159;52.414;9.784;2023-01-04T10:19:54;0.70;;;0.60;;
6251;SDS011;3159;52.414;9.784;2023-01-04T10:22:40;0.50;;;0.50;;
6251;SDS011;3159;52.414;9.784;2023-01-04T10:25:19;0.77;;;0.40;;
6251;SDS011;3159;52.414;9.784;2023-01-04T10:27:52;0.73;;;0.60;;
6251;SDS011;3159;52.414;9.784;2023-01-04T10:30:39;0.77;;;0.60;;
6251;SDS011;3159;52.414;9.784;2023-01-04T10:33:13;0.60;;;0.60;;
6251;SDS011;3159;52.414;9.784;2023-01-04T10:35:43;0.33;;;0.33;;
6251;SDS011;3159;52.414;9.784;2023-01-04T10:38:12;0.63;;;0.30;;
6251;SDS011;3159;52.414;9.784;2023-01-04T10:40:43;0.40;;;0.40;;
6251;SDS011;3159;52.414;9.784;2023-01-04T10:43:14;1.27;;;0.40;;
6251;SDS011;3159;52.414;9.784;2023-01-04T10:45:52;1.13;;;0.50;;
6251;SDS011;3159;52.414;9.784;2023-01-04T10:48:26;0.30;;;0.30;;
6251;SDS011;3159;52.414;9.784;2023-01-04T10:51:03;1.00;;;0.70;;
6251;SDS011;3159;52.414;9.784;2023-01-04T10:53:32;1.27;;;0.50;;
6251;SDS011;3159;52.414;9.784;2023-01-04T10:56:08;0.30;;;0.30;;
6251;SDS011;3159;52.414;9.784;2023-01-04T10:58:41;1.37;;;0.40;;
6251;SDS011;3159;52.414;9.784;2023-01-04T11:01:15;1.80;;;0.30;;
6251;SDS011;3159;52.414;9.784;2023-01-04T11:03:48;0.50;;;0.50;;
6251;SDS011;3159;52.414;9.784;2023-01-04T11:06:19;0.43;;;0.40;;
6251;SDS011;3159;52.414;9.784;2023-01-04T11:08:51;0.50;;;0.37;;
6251;SDS011;3159;52.414;9.784;2023-01-04T11:11:21;1.53;;;0.60;;
6251;SDS011;3159;52.414;9.784;2023-01-04T11:13:52;0.50;;;0.40;;
6251;SDS011;3159;52.414;9.784;2023-01-04T11:16:21;0.70;;;0.70;;
6251;SDS011;3159;52.414;9.784;2023-01-04T11:18:47;0.30;;;0.30;;
6251;SDS011;3159;52.414;9.784;2023-01-04T11:21:16;0.40;;;0.40;;
6251;SDS011;3159;52.414;9.784;2023-01-04T11:23:47;0.53;;;0.40;;
6251;SDS011;3159;52.414;9.784;2023-01-04T11:26:14;0.47;;;0.47;;
6251;SDS011;3159;52.414;9.784;2023-01-04T11:28:46;0.80;;;0.37;;
6251;SDS011;3159;52.414;9.784;2023-01-04T11:31:22;0.40;;;0.30;;
6251;SDS011;3159;52.414;9.784;2023-01-04T11:33:54;1.70;;;0.60;;
6251;SDS011;3159;52.414;9.784;2023-01-04T11:36:33;0.60;;;0.30;;
6251;SDS011;3159;52.414;9.784;2023-01-04T11:39:01;0.30;;;0.20;;
6251;SDS011;3159;52.414;9.784;2023-01-04T11:41:29;0.50;;;0.30;;
6251;SDS011;3159;52.414;9.784;2023-01-04T11:43:57;1.90;;;0.50;;
6251;SDS011;3159;52.414;9.784;2023-01-04T11:46:26;0.50;;;0.40;;
6251;SDS011;3159;52.414;9.784;2023-01-04T11:48:54;0.83;;;0.40;;
6251;SDS011;3159;52.414;9.784;2023-01-04T11:51:35;0.30;;;0.30;;
6251;SDS011;3159;52.414;9.784;2023-01-04T11:54:04;0.93;;;0.30;;
6251;SDS011;3159;52.414;9.784;2023-01-04T11:56:56;0.97;;;0.60;;
6251;SDS011;3159;52.414;9.784;2023-01-04T11:59:27;1.20;;;0.50;;
6251;SDS011;3159;52.414;9.784;2023-01-04T12:02:16;0.43;;;0.43;;
6251;SDS011;3159;52.414;9.784;2023-01-04T12:04:48;0.30;;;0.30;;
6251;SDS011;3159;52.414;9.784;2023-01-04T12:07:22;0.60;;;0.40;;
6251;SDS011;3159;52.414;9.784;2023-01-04T12:09:53;0.80;;;0.20;;
6251;SDS011;3159;52.414;9.784;2023-01-04T12:12:20;0.80;;;0.33;;
6251;SDS011;3159;52.414;9.784;2023-01-04T12:14:52;0.60;;;0.20;;
6251;SDS011;3159;52.414;9.784;2023-01-04T12:17:22;0.67;;;0.40;;
6251;SDS011;3159;52.414;9.784;2023-01-04T12:19:54;1.97;;;0.57;;
6251;SDS011;3159;52.414;9.784;2023-01-04T12:22:23;0.57;;;0.20;;
6251;SDS011;3159;52.414;9.784;2023-01-04T12:24:56;0.83;;;0.40;;
6251;SDS011;3159;52.414;9.784;2023-01-04T12:27:24;0.67;;;0.40;;
6251;SDS011;3159;52.414;9.784;2023-01-04T12:29:55;0.57;;;0.30;;
6251;SDS011;3159;52.414;9.784;2023-01-04T12:32:45;0.30;;;0.30;;
6251;SDS011;3159;52.414;9.784;2023-01-04T12:47:47;0.60;;;0.33;;
6251;SDS011;3159;52.414;9.784;2023-01-04T12:53:48;0.30;;;0.30;;
6251;SDS011;3159;52.414;9.784;2023-01-04T12:56:24;0.87;;;0.30;;
6251;SDS011;3159;52.414;9.784;2023-01-04T12:59:32;2.50;;;2.10;;
6251;SDS011;3159;52.414;9.784;2023-01-04T13:04:45;0.50;;;0.50;;
6251;SDS011;3159;52.414;9.784;2023-01-04T13:07:16;1.57;;;1.47;;
6251;SDS011;3159;52.414;9.784;2023-01-04T13:09:50;0.60;;;0.60;;
6251;SDS011;3159;52.414;9.784;2023-01-04T13:12:42;0.93;;;0.90;;
6251;SDS011;3159;52.414;9.784;2023-01-04T13:15:21;0.37;;;0.37;;
6251;SDS011;3159;52.414;9.784;2023-01-04T13:17:52;0.77;;;0.60;;
6251;SDS011;3159;52.414;9.784;2023-01-04T13:20:21;0.37;;;0.37;;
6251;SDS011;3159;52.414;9.784;2023-01-04T13:22:51;0.53;;;0.50;;
6251;SDS011;3159;52.414;9.784;2023-01-04T13:25:20;0.40;;;0.40;;
6251;SDS011;3159;52.414;9.784;2023-01-04T13:27:55;0.60;;;0.30;;
6251;SDS011;3159;52.414;9.784;2023-01-04T13:30:27;2.10;;;1.90;;
6251;SDS011;3159;52.414;9.784;2023-01-04T13:32:56;0.50;;;0.50;;
6251;SDS011;3159;52.414;9.784;2023-01-04T13:35:25;0.93;;;0.77;;
6251;SDS011;3159;52.414;9.784;2023-01-04T13:37:52;1.87;;;0.60;;
6251;SDS011;3159;52.414;9.784;2023-01-04T13:40:22;0.70;;;0.50;;
6251;SDS011;3159;52.414;9.784;2023-01-04T13:42:55;1.77;;;0.50;;
6251;SDS011;3159;52.414;9.784;2023-01-04T13:48:38;0.50;;;0.40;;
6251;SDS011;3159;52.414;9.784;2023-01-04T13:51:13;0.53;;;0.53;;
6251;SDS011;3159;52.414;9.784;2023-01-04T13:53:41;1.83;;;0.80;;
6251;SDS011;3159;52.414;9.784;2023-01-04T13:56:18;1.10;;;1.00;;
6251;SDS011;3159;52.414;9.784;2023-01-04T13:58:47;0.60;;;0.50;;
6251;SDS011;3159;52.414;9.784;2023-01-04T14:01:15;0.70;;;0.53;;
6251;SDS011;3159;52.414;9.784;2023-01-04T14:03:46;0.90;;;0.80;;
6251;SDS011;3159;52.414;9.784;2023-01-04T14:06:18;1.17;;;0.50;;
6251;SDS011;3159;52.414;9.784;2023-01-04T14:08:49;1.90;;;0.97;;
6251;SDS011;3159;52.414;9.784;2023-01-04T14:11:24;0.50;;;0.50;;
6251;SDS011;3159;52.414;9.784;2023-01-04T14:14:21;0.80;;;0.80;;
6251;SDS011;3159;52.414;9.784;2023-01-04T14:17:13;0.50;;;0.50;;
6251;SDS011;3159;52.414;9.784;2023-01-04T14:19:44;0.40;;;0.40;;
6251;SDS011;3159;52.414;9.784;2023-01-04T14:22:33;0.87;;;0.60;;
6251;SDS011;3159;52.414;9.784;2023-01-04T14:31:12;1.37;;;0.77;;
6251;SDS011;3159;52.414;9.784;2023-01-04T14:33:50;0.70;;;0.70;;
6251;SDS011;3159;52.414;9.784;2023-01-04T14:36:19;2.23;;;2.03;;
6251;SDS011;3159;52.414;9.784;2023-01-04T14:38:54;1.67;;;1.57;;
6251;SDS011;3159;52.414;9.784;2023-01-04T14:41:34;2.60;;;1.93;;
6251;SDS011;3159;52.414;9.784;2023-01-04T14:44:06;1.73;;;1.40;;
6251;SDS011;3159;52.414;9.784;2023-01-04T14:46:36;2.23;;;2.03;;
6251;SDS011;3159;52.414;9.784;2023-01-04T14:49:03;1.00;;;0.90;;
6251;SDS011;3159;52.414;9.784;2023-01-04T14:51:31;1.10;;;1.10;;
6251;SDS011;3159;52.414;9.784;2023-01-04T14:54:03;1.60;;;1.50;;
6251;SDS011;3159;52.414;9.784;2023-01-04T14:56:30;0.90;;;0.90;;
6251;SDS011;3159;52.414;9.784;2023-01-04T14:58:57;1.00;;;1.00;;
6251;SDS011;3159;52.414;9.784;2023-01-04T15:01:24;1.13;;;1.10;;
6251;SDS011;3159;52.414;9.784;2023-01-04T15:03:51;1.73;;;1.63;;
6251;SDS011;3159;52.414;9.784;2023-01-04T15:06:18;1.27;;;1.17;;
6251;SDS011;3159;52.414;9.784;2023-01-04T15:08:44;1.20;;;1.10;;
6251;SDS011;3159;52.414;9.784;2023-01-04T15:11:14;1.47;;;1.37;;
6251;SDS011;3159;52.414;9.784;2023-01-04T15:13:41;2.30;;;1.20;;
6251;SDS011;3159;52.414;9.784;2023-01-04T15:16:09;1.60;;;1.27;;
6251;SDS011;3159;52.414;9.784;2023-01-04T15:18:37;2.27;;;2.17;;
6251;SDS011;3159;52.414;9.784;2023-01-04T15:21:04;2.23;;;1.40;;
6251;SDS011;3159;52.414;9.784;2023-01-04T15:23:31;1.77;;;1.47;;
6251;SDS011;3159;52.414;9.784;2023-01-04T15:25:58;2.20;;;1.70;;
6251;SDS011;3159;52.414;9.784;2023-01-04T15:28:27;2.40;;;1.40;;
6251;SDS011;3159;52.414;9.784;2023-01-04T15:30:53;1.40;;;1.30;;
6251;SDS011;3159;52.414;9.784;2023-01-04T15:33:20;3.27;;;1.80;;
6251;SDS011;3159;52.414;9.784;2023-01-04T15:35:47;3.23;;;2.63;;
6251;SDS011;3159;52.414;9.784;2023-01-04T15:38:24;3.53;;;1.97;;
6251;SDS011;3159;52.414;9.784;2023-01-04T15:40:50;3.77;;;1.70;;
6251;SDS011;3159;52.414;9.784;2023-01-04T15:43:24;5.53;;;1.70;;
6251;SDS011;3159;52.414;9.784;2023-01-04T15:45:52;3.77;;;1.90;;
6251;SDS011;3159;52.414;9.784;2023-01-04T15:48:19;4.83;;;1.30;;
6251;SDS011;3159;52.414;9.784;2023-01-04T15:50:46;4.63;;;1.67;;
6251;SDS011;3159;52.414;9.784;2023-01-04T15:53:13;4.93;;;1.60;;
6251;SDS011;3159;52.414;9.784;2023-01-04T15:55:39;4.23;;;1.37;;
6251;SDS011;3159;52.414;9.784;2023-01-04T15:58:06;2.90;;;1.43;;
6251;SDS011;3159;52.414;9.784;2023-01-04T16:00:33;6.30;;;1.80;;
6251;SDS011;3159;52.414;9.784;2023-01-04T16:03:03;3.70;;;1.73;;
6251;SDS011;3159;52.414;9.784;2023-01-04T16:05:30;4.50;;;1.50;;
6251;SDS011;3159;52.414;9.784;2023-01-04T16:07:57;3.67;;;1.37;;
6251;SDS011;3159;52.414;9.784;2023-01-04T16:10:24;4.77;;;1.73;;
6251;SDS011;3159;52.414;9.784;2023-01-04T16:12:51;3.27;;;1.83;;